Time;durP1;ratioP1;P1;durP2;ratioP2;P2;SDS_P1;SDS_P2;PMS_P1;PMS_P2;Temp;Humidity;BMP_temperature;BMP_pressure;BME280_temperature;BME280_humidity;BME280_pressure;Samples;Min_cycle;Max_cycle;Signal;HPM_P1;HPM_P2
2023/07/17 00:02:07;;;;;;;13.23;3.63;;;;;;;15.83;100.00;101440.63;10412995;28;20065;-73
2023/07/17 00:07:07;;;;;;;7.05;2.97;;;;;;;15.78;100.00;101428.44;10412591;28;20033;-73
2023/07/17 00:12:08;;;;;;;6.20;2.88;;;;;;;15.74;100.00;101440.03;10413156;28;20029;-73
2023/07/17 00:17:08;;;;;;;7.28;2.83;;;;;;;15.59;100.00;101434.81;10413004;28;20434;-73
2023/07/17 00:22:08;;;;;;;6.80;2.65;;;;;;;15.55;100.00;101434.44;10413055;28;20037;-73
2023/07/17 00:27:09;;;;;;;6.88;3.20;;;;;;;15.55;100.00;101439.06;10413229;28;20060;-73
2023/07/17 00:32:13;;;;;;;8.90;2.95;;;;;;;15.55;100.00;101441.78;10413611;28;20068;-73
2023/07/17 00:37:13;;;;;;;8.27;3.15;;;;;;;15.54;100.00;101440.94;10411090;28;20044;-73
2023/07/17 00:42:14;;;;;;;10.38;2.97;;;;;;;15.53;100.00;101439.25;10412835;28;20033;-73
2023/07/17 00:47:14;;;;;;;10.52;4.07;;;;;;;15.54;100.00;101449.16;10412392;28;20112;-73
2023/07/17 00:52:15;;;;;;;8.30;3.08;;;;;;;15.55;100.00;101441.78;10410588;28;20030;-73
2023/07/17 00:57:15;;;;;;;7.75;3.53;;;;;;;15.49;100.00;101440.75;10415674;28;20056;-73
2023/07/17 01:02:16;;;;;;;6.32;3.47;;;;;;;15.49;100.00;101450.84;10434949;28;20033;-73
2023/07/17 01:07:17;;;;;;;11.02;4.50;;;;;;;15.40;100.00;101447.50;10435820;28;20089;-73
2023/07/17 01:12:17;;;;;;;15.25;4.28;;;;;;;15.40;100.00;101452.97;10418343;28;20040;-73
2023/07/17 01:17:17;;;;;;;8.18;4.13;;;;;;;15.39;100.00;101455.94;10418122;28;20045;-73
2023/07/17 01:22:29;;;;;;;6.32;4.07;;;;;;;15.40;100.00;101461.16;10418843;28;20029;-73
2023/07/17 01:27:29;;;;;;;13.45;4.32;;;;;;;15.47;100.00;101458.41;10433252;28;20029;-73
2023/07/17 01:32:29;;;;;;;3.97;3.50;;;;;;;15.44;100.00;101456.94;10419258;28;20034;-73
2023/07/17 01:37:30;;;;;;;15.93;4.68;;;;;;;15.45;100.00;101466.81;10417665;28;20500;-73
2023/07/17 01:42:30;;;;;;;16.92;3.85;;;;;;;15.45;100.00;101464.09;10417956;28;20041;-73
2023/07/17 01:47:31;;;;;;;9.27;4.18;;;;;;;15.41;100.00;101459.25;10417773;28;20061;-73
2023/07/17 01:52:31;;;;;;;8.77;4.95;;;;;;;15.36;100.00;101451.72;10399317;28;20483;-73
2023/07/17 01:57:31;;;;;;;9.88;4.13;;;;;;;15.43;100.00;101449.81;10433364;28;20036;-73
2023/07/17 02:02:32;;;;;;;7.93;5.38;;;;;;;15.57;100.00;101456.91;10417311;28;20124;-73
2023/07/17 02:07:32;;;;;;;8.18;4.25;;;;;;;15.71;100.00;101454.97;10416265;28;20029;-73
2023/07/17 02:12:33;;;;;;;12.63;4.55;;;;;;;15.83;100.00;101446.09;10416941;28;20120;-73
2023/07/17 02:17:33;;;;;;;13.60;6.72;;;;;;;15.79;100.00;101454.72;10416986;28;20453;-73
2023/07/17 02:22:33;;;;;;;15.57;5.20;;;;;;;15.72;100.00;101453.91;10416615;28;20038;-73
2023/07/17 02:27:34;;;;;;;18.23;5.82;;;;;;;15.86;100.00;101470.22;10416539;28;20473;-73
2023/07/17 02:32:34;;;;;;;13.50;5.63;;;;;;;15.88;100.00;101454.44;10431129;28;20503;-73
2023/07/17 02:37:35;;;;;;;11.30;5.13;;;;;;;15.93;100.00;101460.09;10416710;28;20105;-73
2023/07/17 02:42:35;;;;;;;16.40;5.20;;;;;;;16.01;100.00;101455.19;10415478;28;20038;-73
2023/07/17 02:47:36;;;;;;;12.15;5.80;;;;;;;16.04;100.00;101467.59;10430586;28;20050;-73
2023/07/17 02:52:36;;;;;;;12.23;5.85;;;;;;;15.98;100.00;101472.03;10413676;28;20432;-73
2023/07/17 02:57:36;;;;;;;9.93;5.50;;;;;;;15.92;100.00;101472.94;10415069;28;20034;-73
2023/07/17 03:02:38;;;;;;;10.63;6.53;;;;;;;15.98;100.00;101471.19;10415700;28;20034;-73
2023/07/17 03:07:40;;;;;;;13.90;7.15;;;;;;;16.10;100.00;101476.81;10413274;28;20029;-73
2023/07/17 03:12:41;;;;;;;10.38;6.68;;;;;;;16.10;100.00;101485.00;10414662;28;20037;-72
2023/07/17 03:17:42;;;;;;;14.20;7.60;;;;;;;16.09;100.00;101483.34;10396724;28;20025;-73
2023/07/17 03:22:42;;;;;;;18.10;5.55;;;;;;;16.00;100.00;101480.84;10414495;28;20037;-73
2023/07/17 03:27:42;;;;;;;14.38;6.68;;;;;;;15.87;100.00;101480.09;10414166;28;20046;-73
2023/07/17 03:32:43;;;;;;;11.02;5.93;;;;;;;15.75;100.00;101494.41;10413952;28;20029;-73
2023/07/17 03:37:43;;;;;;;16.50;6.38;;;;;;;15.72;100.00;101483.09;10413546;28;20033;-73
2023/07/17 03:42:44;;;;;;;8.20;6.20;;;;;;;15.70;100.00;101475.16;10413516;28;20074;-73
2023/07/17 03:47:44;;;;;;;12.00;7.05;;;;;;;15.62;100.00;101488.16;10414123;28;20107;-73
2023/07/17 03:52:45;;;;;;;10.25;6.63;;;;;;;15.81;100.00;101479.06;10413283;28;20026;-73
2023/07/17 03:57:45;;;;;;;13.75;7.35;;;;;;;16.10;100.00;101495.94;10413412;28;20037;-73
2023/07/17 04:02:45;;;;;;;22.33;7.93;;;;;;;16.17;100.00;101497.53;10411882;28;20113;-73
2023/07/17 04:07:46;;;;;;;13.38;7.68;;;;;;;16.11;100.00;101494.88;10412985;28;20091;-73
2023/07/17 04:12:46;;;;;;;12.75;5.88;;;;;;;15.97;100.00;101505.03;10413118;28;20033;-73
2023/07/17 04:17:47;;;;;;;12.93;6.03;;;;;;;15.87;100.00;101505.50;10413007;28;20064;-73
2023/07/17 04:22:47;;;;;;;9.23;5.55;;;;;;;15.79;100.00;101508.47;10411602;28;20142;-73
2023/07/17 04:27:47;;;;;;;5.60;4.72;;;;;;;15.77;100.00;101514.16;10413129;28;20042;-73
2023/07/17 04:32:51;;;;;;;11.52;5.43;;;;;;;15.96;100.00;101517.03;10416822;28;20380;-73
2023/07/17 04:37:54;;;;;;;9.05;4.50;;;;;;;16.10;100.00;101518.63;10420348;28;20045;-73
2023/07/17 04:42:54;;;;;;;12.40;6.43;;;;;;;16.35;100.00;101513.22;10419981;28;20064;-73
2023/07/17 04:47:54;;;;;;;6.68;4.43;;;;;;;16.47;100.00;101527.84;10420235;28;20130;-73
2023/07/17 04:52:55;;;;;;;15.48;5.60;;;;;;;16.50;100.00;101541.06;10419507;28;20120;-73
2023/07/17 04:57:55;;;;;;;8.68;4.88;;;;;;;16.84;100.00;101536.19;10420053;28;20041;-72
2023/07/17 05:02:56;;;;;;;10.82;4.53;;;;;;;17.14;100.00;101546.47;10420303;28;20042;-73
2023/07/17 05:07:57;;;;;;;10.77;6.03;;;;;;;16.92;100.00;101549.59;10434981;28;20069;-73
2023/07/17 05:12:59;;;;;;;11.13;4.85;;;;;;;16.79;100.00;101566.13;10419285;28;20033;-72
2023/07/17 05:17:59;;;;;;;8.50;3.90;;;;;;;16.85;100.00;101570.72;10433530;28;20041;-73
2023/07/17 05:23:00;;;;;;;10.55;4.50;;;;;;;17.84;100.00;101566.16;10417836;28;20099;-73
2023/07/17 05:28:00;;;;;;;7.35;3.70;;;;;;;18.00;100.00;101577.56;10417105;28;20067;-72
2023/07/17 05:33:01;;;;;;;9.10;4.65;;;;;;;19.23;100.00;101581.59;10434262;28;20135;-73
2023/07/17 05:38:01;;;;;;;11.80;4.55;;;;;;;18.84;100.00;101581.22;10415969;28;20048;-73
2023/07/17 05:43:02;;;;;;;9.02;4.05;;;;;;;18.17;100.00;101592.31;10416263;28;20038;-73
2023/07/17 05:48:03;;;;;;;14.60;4.53;;;;;;;18.16;100.00;101595.28;10418533;28;20101;-73
2023/07/17 05:53:03;;;;;;;8.35;4.80;;;;;;;19.33;100.00;101609.31;10417758;28;20037;-73
2023/07/17 05:58:03;;;;;;;5.88;4.22;;;;;;;20.38;100.00;101605.53;10417643;28;20475;-73
2023/07/17 06:03:04;;;;;;;5.03;3.42;;;;;;;21.09;100.00;101605.16;10433138;28;20071;-73
2023/07/17 06:08:05;;;;;;;3.97;3.47;;;;;;;20.59;100.00;101612.31;10416726;28;20037;-73
2023/07/17 06:13:05;;;;;;;6.85;3.40;;;;;;;19.62;100.00;101621.25;10431960;28;20116;-73
2023/07/17 06:18:06;;;;;;;6.68;3.13;;;;;;;18.80;100.00;101623.94;10415624;28;20473;-74
2023/07/17 06:23:06;;;;;;;7.47;3.22;;;;;;;19.58;100.00;101624.72;10417566;28;20381;-74
2023/07/17 06:28:07;;;;;;;5.78;4.18;;;;;;;21.42;100.00;101631.91;10416062;28;20037;-73
2023/07/17 06:33:07;;;;;;;9.48;3.17;;;;;;;22.40;100.00;101634.03;10416050;28;20030;-73
2023/07/17 06:38:07;;;;;;;11.88;3.78;;;;;;;22.65;100.00;101633.47;10415977;28;20044;-72
2023/07/17 06:43:09;;;;;;;11.57;3.60;;;;;;;21.58;100.00;101633.78;10416182;28;20029;-73
2023/07/17 06:48:09;;;;;;;4.60;3.40;;;;;;;21.62;100.00;101636.03;10415135;28;20080;-73
2023/07/17 06:53:10;;;;;;;7.93;3.78;;;;;;;22.28;99.19;101642.47;10414919;28;20044;-73
2023/07/17 06:58:10;;;;;;;13.35;4.10;;;;;;;21.42;100.00;101647.59;10415801;28;20045;-73
2023/07/17 07:03:11;;;;;;;9.10;3.67;;;;;;;22.71;100.00;101654.53;10415272;28;20038;-74
2023/07/17 07:08:11;;;;;;;5.35;3.33;;;;;;;24.07;100.00;101652.28;10430471;28;20132;-73
2023/07/17 07:13:11;;;;;;;2.35;2.15;;;;;;;22.91;100.00;101671.31;10415099;28;20033;-74
2023/07/17 07:18:12;;;;;;;3.53;2.55;;;;;;;22.03;99.89;101671.34;10414598;28;20040;-71
2023/07/17 07:23:12;;;;;;;6.97;2.78;;;;;;;22.47;91.21;101676.91;10415958;28;20101;-72
2023/07/17 07:28:12;;;;;;;3.28;2.60;;;;;;;21.71;93.54;101678.63;10413446;28;20146;-72
2023/07/17 07:33:13;;;;;;;7.72;3.05;;;;;;;22.23;98.48;101681.84;10414210;28;20040;-71
2023/07/17 07:38:13;;;;;;;2.95;2.35;;;;;;;23.63;88.96;101683.78;10414529;28;20076;-72
2023/07/17 07:43:14;;;;;;;6.25;2.88;;;;;;;22.27;97.42;101698.72;10415007;28;20481;-71
2023/07/17 07:48:14;;;;;;;4.07;2.65;;;;;;;22.14;100.00;101696.31;10414644;28;20085;-71
2023/07/17 07:53:14;;;;;;;3.92;2.55;;;;;;;24.62;89.42;101700.66;10412530;28;20033;-72
2023/07/17 07:58:15;;;;;;;11.05;2.55;;;;;;;22.61;90.36;101695.81;10413986;28;20041;-72
2023/07/17 08:03:15;;;;;;;3.20;1.98;;;;;;;22.09;96.06;101696.25;10413583;28;20034;-71
2023/07/17 08:08:16;;;;;;;2.00;1.77;;;;;;;22.91;90.81;101698.94;10412759;28;20053;-71
2023/07/17 08:13:16;;;;;;;7.97;2.72;;;;;;;22.22;97.52;101705.03;10414504;28;20424;-72
2023/07/17 08:18:16;;;;;;;7.60;2.75;;;;;;;23.00;95.09;101717.81;10413275;28;20120;-71
2023/07/17 08:23:26;;;;;;;6.35;2.30;;;;;;;23.74;93.72;101709.63;10413591;28;20047;-71
2023/07/17 08:28:27;;;;;;;4.57;2.80;;;;;;;24.11;94.82;101717.03;10414208;28;20512;-71
2023/07/17 08:33:27;;;;;;;6.40;2.30;;;;;;;22.72;93.05;101733.53;10412737;28;20116;-71
2023/07/17 08:38:28;;;;;;;2.53;2.13;;;;;;;24.79;84.57;101729.00;10413537;28;20358;-71
2023/07/17 08:43:28;;;;;;;1.92;1.75;;;;;;;25.20;93.63;101739.34;10413132;28;20080;-72
2023/07/17 08:48:28;;;;;;;5.43;2.28;;;;;;;25.17;75.23;101737.09;10428336;28;20488;-71
2023/07/17 08:53:31;;;;;;;7.07;2.75;;;;;;;22.78;88.84;101743.50;10394676;28;20091;-71
2023/07/17 08:58:31;;;;;;;2.30;1.92;;;;;;;23.67;75.19;101734.72;10413710;28;20037;-72
2023/07/17 09:03:32;;;;;;;9.80;2.15;;;;;;;22.02;84.88;101738.66;10413445;28;20037;-72
2023/07/17 09:08:32;;;;;;;2.60;2.40;;;;;;;23.09;83.29;101743.88;10427691;28;20042;-71
2023/07/17 09:13:37;;;;;;;6.93;2.72;;;;;;;24.91;77.68;101733.44;10427160;28;20103;-71
2023/07/17 09:18:37;;;;;;;2.20;1.98;;;;;;;26.42;73.49;101730.03;10417968;28;20034;-71
2023/07/17 09:23:39;;;;;;;5.90;2.88;;;;;;;25.32;73.69;101737.13;10421157;28;20034;-71
2023/07/17 09:28:49;;;;;;;4.80;2.38;;;;;;;24.57;70.63;101743.03;10419764;28;20051;-71
2023/07/17 09:33:49;;;;;;;8.93;3.58;;;;;;;23.68;75.50;101743.84;10419421;28;20464;-72
2023/07/17 09:38:54;;;;;;;7.70;3.15;;;;;;;25.83;73.61;101744.63;10418903;28;20068;-71
2023/07/17 09:43:59;;;;;;;7.80;4.40;;;;;;;27.37;64.78;101737.28;10435445;28;20037;-71
2023/07/17 09:49:00;;;;;;;3.80;3.45;;;;;;;28.01;61.48;101730.56;10418160;28;20492;-71
2023/07/17 09:54:01;;;;;;;2.08;1.98;;;;;;;28.10;52.79;101755.00;10433446;28;20060;-72
2023/07/17 09:59:12;;;;;;;3.55;2.10;;;;;;;27.78;53.11;101756.44;10416784;28;20056;-71
2023/07/17 10:04:13;;;;;;;15.20;4.40;;;;;;;27.00;61.69;101760.88;10416305;28;20033;-71
2023/07/17 10:09:14;;;;;;;6.57;4.53;;;;;;;26.55;62.22;101764.75;10416870;28;20384;-71
2023/07/17 10:14:14;;;;;;;7.90;3.40;;;;;;;26.30;59.18;101772.00;10417712;28;20101;-71
2023/07/17 10:19:15;;;;;;;4.50;3.00;;;;;;;26.95;57.71;101769.25;10432681;28;20436;-71
2023/07/17 10:24:15;;;;;;;3.63;2.60;;;;;;;27.07;58.74;101768.91;10433154;28;20068;-72
2023/07/17 10:29:15;;;;;;;5.68;4.15;;;;;;;24.52;70.73;101769.88;10416706;28;20037;-71
2023/07/17 10:34:16;;;;;;;7.13;4.07;;;;;;;23.18;78.00;101772.69;10431567;28;20510;-70
2023/07/17 10:39:17;;;;;;;5.35;3.22;;;;;;;23.49;67.25;101786.81;10417551;28;20156;-73
2023/07/17 10:44:18;;;;;;;4.45;3.22;;;;;;;24.44;65.49;101775.91;10417054;28;20461;-72
2023/07/17 10:49:20;;;;;;;3.72;2.80;;;;;;;24.24;69.31;101794.03;10414841;28;20489;-72
2023/07/17 10:54:21;;;;;;;6.50;4.13;;;;;;;25.12;62.59;101787.84;10414960;28;20069;-75
2023/07/17 10:59:22;;;;;;;4.18;3.88;;;;;;;25.34;63.71;101790.38;10414604;28;20038;-73
2023/07/17 11:04:23;;;;;;;6.93;3.15;;;;;;;25.09;63.81;101781.97;10415071;28;20036;-72
2023/07/17 11:09:27;;;;;;;5.43;3.55;;;;;;;25.40;71.08;101783.72;10413770;28;20049;-70
2023/07/17 11:14:27;;;;;;;4.32;3.13;;;;;;;24.72;68.08;101799.59;10414050;28;20121;-73
2023/07/17 11:19:28;;;;;;;12.63;3.45;;;;;;;24.49;61.63;101798.09;10430793;28;20125;-72
2023/07/17 11:24:29;;;;;;;7.18;3.33;;;;;;;24.30;63.60;101792.97;10414910;28;20080;-73
2023/07/17 11:29:30;;;;;;;4.53;3.08;;;;;;;24.16;73.86;101807.56;10413641;28;20072;-73
2023/07/17 11:34:31;;;;;;;7.25;4.72;;;;;;;24.70;64.80;101794.31;10414537;28;20029;-73
2023/07/17 11:39:32;;;;;;;7.68;4.65;;;;;;;25.18;66.44;101800.59;10412167;28;20061;-73
2023/07/17 11:44:32;;;;;;;10.20;4.88;;;;;;;25.59;59.55;101797.88;10414142;28;20087;-72
2023/07/17 11:49:33;;;;;;;6.03;4.03;;;;;;;26.16;54.78;101795.91;10412677;28;20052;-72
2023/07/17 11:54:37;;;;;;;6.15;3.22;;;;;;;25.33;57.20;101801.72;10412847;28;20041;-72
2023/07/17 11:59:37;;;;;;;12.93;4.68;;;;;;;24.96;61.65;101800.78;10414004;28;20136;-72
2023/07/17 12:04:39;;;;;;;6.63;4.15;;;;;;;24.59;58.30;101803.69;10413449;28;20114;-72
2023/07/17 12:09:40;;;;;;;6.88;3.00;;;;;;;24.93;58.45;101803.28;10413830;28;20041;-72
2023/07/17 12:14:40;;;;;;;3.47;3.25;;;;;;;25.19;56.06;101801.44;10413307;28;20034;-72
2023/07/17 12:19:42;;;;;;;3.55;3.22;;;;;;;27.29;49.80;101788.81;10411634;28;20060;-72
2023/07/17 12:24:43;;;;;;;4.57;3.33;;;;;;;26.59;51.75;101796.38;10413864;28;20049;-72
2023/07/17 12:29:43;;;;;;;4.25;2.83;;;;;;;26.49;47.63;101793.66;10395522;28;20025;-72
2023/07/17 12:34:44;;;;;;;2.38;2.17;;;;;;;26.17;48.02;101801.19;10414028;28;20461;-71
2023/07/17 12:39:44;;;;;;;2.28;2.13;;;;;;;25.96;52.19;101803.16;10412847;28;20026;-72
2023/07/17 12:44:44;;;;;;;3.30;2.65;;;;;;;26.50;49.69;101801.69;10412958;28;20438;-72
2023/07/17 12:49:45;;;;;;;11.00;3.10;;;;;;;26.03;48.25;101813.97;10414932;28;20049;-72
2023/07/17 12:54:45;;;;;;;5.53;2.90;;;;;;;25.87;50.20;101813.16;10418524;28;20037;-72
2023/07/17 12:59:46;;;;;;;3.20;2.90;;;;;;;25.40;52.14;101817.00;10419843;28;20057;-72
2023/07/17 13:04:46;;;;;;;12.20;3.30;;;;;;;25.39;50.70;101806.16;10420936;28;20045;-72
2023/07/17 13:09:46;;;;;;;3.20;2.85;;;;;;;24.87;52.39;101815.44;10419707;28;20045;-72
2023/07/17 13:14:47;;;;;;;13.55;4.18;;;;;;;25.17;51.82;101823.03;10420697;28;20068;-72
2023/07/17 13:19:49;;;;;;;2.65;2.45;;;;;;;24.78;52.53;101826.19;10418095;28;20037;-71
2023/07/17 13:24:49;;;;;;;5.68;3.47;;;;;;;24.07;54.08;101824.66;10418824;28;20123;-71
2023/07/17 13:29:50;;;;;;;4.78;3.22;;;;;;;23.94;54.35;101827.06;10418558;28;20119;-71
2023/07/17 13:34:50;;;;;;;5.07;2.72;;;;;;;23.42;54.44;101834.88;10419104;28;20036;-71
2023/07/17 13:39:50;;;;;;;3.88;3.53;;;;;;;23.36;56.06;101826.78;10418002;28;20068;-71
2023/07/17 13:44:51;;;;;;;8.82;3.10;;;;;;;23.32;56.20;101833.91;10419030;28;20038;-71
2023/07/17 13:49:51;;;;;;;7.65;4.53;;;;;;;23.47;56.96;101839.59;10417430;28;20092;-71
2023/07/17 13:54:52;;;;;;;8.07;3.60;;;;;;;23.49;56.37;101864.25;10417804;28;20416;-72
2023/07/17 13:59:52;;;;;;;6.07;3.90;;;;;;;23.58;52.26;101857.13;10417445;28;20041;-71
2023/07/17 14:04:52;;;;;;;2.88;2.67;;;;;;;23.40;52.48;101867.44;10416250;28;20030;-72
2023/07/17 14:09:53;;;;;;;3.40;3.13;;;;;;;23.68;54.19;101860.00;10418003;28;20056;-72
2023/07/17 14:14:53;;;;;;;2.60;2.40;;;;;;;23.98;51.53;101864.97;10417963;28;20113;-72
2023/07/17 14:19:54;;;;;;;10.27;3.38;;;;;;;24.24;50.32;101868.78;10417267;28;20046;-72
2023/07/17 14:24:54;;;;;;;5.32;3.63;;;;;;;24.31;50.55;101874.94;10417225;28;20092;-71
2023/07/17 14:29:54;;;;;;;4.45;3.80;;;;;;;24.22;48.74;101859.94;10416007;28;20041;-71
2023/07/17 14:34:55;;;;;;;4.20;2.53;;;;;;;24.39;50.01;101867.22;10367600;28;20122;-71
2023/07/17 14:39:55;;;;;;;6.63;4.43;;;;;;;23.98;50.83;101853.91;10416216;28;20048;-71
2023/07/17 14:44:56;;;;;;;4.35;3.72;;;;;;;23.81;51.95;101858.75;10431064;28;20087;-71
2023/07/17 14:49:56;;;;;;;2.80;2.55;;;;;;;23.53;50.66;101859.84;10431802;28;20050;-72
2023/07/17 14:54:57;;;;;;;3.53;1.92;;;;;;;23.43;50.92;101866.94;10415372;28;20053;-72
2023/07/17 14:59:57;;;;;;;5.97;2.92;;;;;;;24.03;49.97;101856.75;10414046;28;20397;-72
2023/07/17 15:04:58;;;;;;;1.60;1.50;;;;;;;24.76;47.31;101848.66;10381978;28;20124;-72
2023/07/17 15:09:58;;;;;;;2.42;1.73;;;;;;;24.44;46.23;101847.91;10414807;28;20065;-72
2023/07/17 15:14:58;;;;;;;6.28;1.80;;;;;;;24.23;46.75;101839.44;10413746;28;20056;-72
2023/07/17 15:19:59;;;;;;;6.70;1.40;;;;;;;24.22;47.31;101857.16;10414348;28;20046;-72
2023/07/17 15:24:59;;;;;;;3.00;1.42;;;;;;;24.15;47.75;101853.75;10415184;28;20033;-72
2023/07/17 15:30:00;;;;;;;4.75;1.80;;;;;;;23.90;49.26;101858.03;10414308;28;20428;-72
2023/07/17 15:35:00;;;;;;;3.72;1.40;;;;;;;23.90;48.34;101857.19;10397479;28;20212;-72
2023/07/17 15:40:03;;;;;;;6.63;2.75;;;;;;;23.83;49.59;101865.69;10412594;28;20044;-72
2023/07/17 15:45:05;;;;;;;4.13;2.65;;;;;;;23.83;50.48;101862.09;10413631;28;20087;-72
2023/07/17 15:50:06;;;;;;;7.15;2.92;;;;;;;23.73;50.52;101868.34;10411585;28;20054;-72
2023/07/17 15:55:07;;;;;;;2.35;1.58;;;;;;;23.36;49.20;101871.84;10412537;28;20562;-72
2023/07/17 16:00:08;;;;;;;1.45;1.33;;;;;;;23.16;47.23;101864.13;10413368;28;20172;-72
2023/07/17 16:05:09;;;;;;;3.35;2.10;;;;;;;23.34;48.84;101860.19;10413122;28;20192;-72
2023/07/17 16:10:09;;;;;;;1.95;1.55;;;;;;;23.23;47.79;101854.81;10412869;28;20095;-72
2023/07/17 16:15:10;;;;;;;3.65;1.58;;;;;;;22.86;47.53;101855.47;10428449;28;20041;-72
2023/07/17 16:20:11;;;;;;;4.45;1.80;;;;;;;22.56;48.53;101845.69;10412817;28;20041;-72
2023/07/17 16:25:11;;;;;;;3.15;2.05;;;;;;;22.37;50.27;101850.66;10412674;28;20535;-72
2023/07/17 16:30:12;;;;;;;2.63;2.10;;;;;;;21.70;52.14;101856.16;10421018;28;20038;-72
2023/07/17 16:35:12;;;;;;;2.28;1.58;;;;;;;21.35;53.41;101873.69;10420717;28;20060;-71
2023/07/17 16:40:13;;;;;;;5.68;1.30;;;;;;;21.05;54.61;101877.47;10402765;28;20051;-72
2023/07/17 16:45:15;;;;;;;4.18;2.20;;;;;;;20.84;55.59;101883.63;10435807;28;20061;-72
2023/07/17 16:50:15;;;;;;;2.50;1.77;;;;;;;20.69;57.84;101900.66;10421062;28;20075;-72
2023/07/17 16:55:16;;;;;;;3.90;2.20;;;;;;;20.55;58.42;101883.56;10418462;28;20398;-72
2023/07/17 17:00:17;;;;;;;2.15;1.95;;;;;;;20.69;59.01;101892.38;10418863;28;20520;-72
2023/07/17 17:05:17;;;;;;;6.75;2.00;;;;;;;20.59;61.87;101887.50;10419564;28;20548;-72
2023/07/17 17:10:18;;;;;;;4.38;3.08;;;;;;;20.47;66.25;101883.88;10419330;28;20118;-71
2023/07/17 17:15:18;;;;;;;8.20;2.65;;;;;;;20.36;67.83;101914.97;10419707;28;20051;-72
2023/07/17 17:20:20;;;;;;;4.38;2.45;;;;;;;20.28;69.48;101915.31;10419642;28;20108;-71
2023/07/17 17:25:21;;;;;;;9.07;3.33;;;;;;;20.18;69.09;101921.41;10418917;28;20171;-72
2023/07/17 17:30:22;;;;;;;6.00;3.53;;;;;;;20.16;69.30;101915.28;10417216;28;20041;-72
2023/07/17 17:35:23;;;;;;;6.75;2.08;;;;;;;20.07;70.96;101914.81;10417273;28;20069;-72
2023/07/17 17:40:23;;;;;;;3.58;2.42;;;;;;;19.92;71.70;101925.44;10418942;28;20545;-71
2023/07/17 17:45:24;;;;;;;11.52;3.22;;;;;;;20.05;71.77;101927.97;10418171;28;20072;-72
2023/07/17 17:50:24;;;;;;;10.93;2.50;;;;;;;20.04;72.72;101929.03;10416401;28;20111;-71
2023/07/17 17:55:25;;;;;;;7.15;2.83;;;;;;;19.85;73.30;101931.03;10417447;28;20033;-72
2023/07/17 18:00:25;;;;;;;9.02;4.45;;;;;;;19.80;73.50;101930.03;10416521;28;20037;-72
2023/07/17 18:05:26;;;;;;;3.05;2.33;;;;;;;19.66;76.01;101932.16;10432206;28;20120;-72
2023/07/17 18:10:26;;;;;;;3.78;1.98;;;;;;;19.60;74.53;101939.38;10417343;28;20358;-71
2023/07/17 18:15:26;;;;;;;4.93;2.55;;;;;;;19.56;76.44;101934.56;10417557;28;20112;-72
2023/07/17 18:20:29;;;;;;;8.00;1.95;;;;;;;19.46;79.02;101946.97;10417528;28;20041;-72
2023/07/17 18:25:29;;;;;;;2.53;1.95;;;;;;;19.33;79.31;101938.03;10431164;28;20433;-72
2023/07/17 18:30:29;;;;;;;3.78;2.50;;;;;;;19.33;77.50;101949.03;10416327;28;20083;-72
2023/07/17 18:35:30;;;;;;;7.38;3.22;;;;;;;19.28;79.48;101953.31;10414321;28;20069;-73
2023/07/17 18:40:30;;;;;;;9.45;3.08;;;;;;;19.24;80.41;101960.34;10414892;28;20041;-73
2023/07/17 18:45:31;;;;;;;8.63;3.00;;;;;;;19.17;81.14;101958.72;10414566;28;20447;-73
2023/07/17 18:50:31;;;;;;;1.80;1.70;;;;;;;19.09;79.30;101970.03;10413617;28;20061;-73
2023/07/17 18:55:32;;;;;;;7.70;2.85;;;;;;;19.03;78.35;101963.53;10415090;28;20342;-73
2023/07/17 19:00:33;;;;;;;7.70;3.17;;;;;;;18.93;81.20;101969.56;10415491;28;20029;-73
2023/07/17 19:05:34;;;;;;;8.93;2.42;;;;;;;18.80;80.08;101972.44;10415395;28;20033;-74
2023/07/17 19:10:34;;;;;;;10.00;2.20;;;;;;;18.65;81.06;101982.88;10430247;28;20080;-75
2023/07/17 19:15:34;;;;;;;5.78;2.35;;;;;;;18.52;81.79;101987.41;10430547;28;20098;-75
2023/07/17 19:20:38;;;;;;;13.20;2.65;;;;;;;18.40;81.16;101991.09;10413600;28;20549;-74
2023/07/17 19:25:38;;;;;;;8.07;3.10;;;;;;;18.27;80.58;101995.63;10413006;28;20087;-73
2023/07/17 19:30:39;;;;;;;5.95;2.42;;;;;;;18.17;81.59;102000.75;10414121;28;20038;-73
2023/07/17 19:35:39;;;;;;;3.65;2.67;;;;;;;18.10;83.29;102014.53;10412742;28;20132;-73
2023/07/17 19:40:40;;;;;;;7.47;3.10;;;;;;;18.03;83.87;102021.13;10413501;28;20525;-73
2023/07/17 19:45:41;;;;;;;8.70;3.00;;;;;;;17.99;81.72;102017.94;10413615;28;20029;-73
2023/07/17 19:50:41;;;;;;;12.50;4.10;;;;;;;17.91;83.71;102025.59;10411193;28;20049;-74
2023/07/17 19:55:42;;;;;;;4.75;4.32;;;;;;;17.87;82.99;102023.31;10413834;28;20074;-73
2023/07/17 20:00:43;;;;;;;11.38;2.40;;;;;;;17.82;82.24;102028.59;10411775;28;20370;-74
2023/07/17 20:05:43;;;;;;;15.13;3.08;;;;;;;17.76;82.58;102032.16;10410924;28;20120;-74
2023/07/17 20:10:44;;;;;;;11.73;3.08;;;;;;;17.67;84.07;102038.94;10411815;28;20382;-72
2023/07/17 20:15:46;;;;;;;5.88;2.88;;;;;;;17.61;83.53;102026.97;10411366;28;20397;-74
2023/07/17 20:20:46;;;;;;;8.75;1.92;;;;;;;17.58;83.48;102037.50;10429176;28;20029;-71
2023/07/17 20:25:47;;;;;;;6.75;3.05;;;;;;;17.55;85.42;102038.78;10412889;28;20056;-71
2023/07/17 20:30:47;;;;;;;3.85;2.17;;;;;;;17.61;85.44;102034.31;10412012;28;20037;-71
2023/07/17 20:35:50;;;;;;;4.25;2.22;;;;;;;17.55;89.23;102032.44;10411830;28;20116;-70
2023/07/17 20:40:50;;;;;;;13.32;2.42;;;;;;;17.52;91.21;102047.44;10412923;28;20128;-71
2023/07/17 20:45:52;;;;;;;17.88;3.95;;;;;;;17.47;91.42;102043.66;10413142;28;20046;-71
2023/07/17 20:51:12;;;;;;;8.90;2.83;;;;;;;17.45;91.62;102043.84;10411985;28;20060;-71
2023/07/17 20:56:12;;;;;;;10.52;3.80;;;;;;;17.42;93.38;102038.81;10427206;28;20052;-72
2023/07/17 21:01:23;;;;;;;8.32;3.00;;;;;;;17.41;95.53;102039.88;10411827;28;20036;-71
2023/07/17 21:06:24;;;;;;;11.55;4.95;;;;;;;17.38;93.99;102029.34;10412115;28;20454;-71
2023/07/17 21:11:25;;;;;;;10.80;2.72;;;;;;;17.29;96.13;102020.53;10410196;28;20056;-71
2023/07/17 21:16:26;;;;;;;5.28;2.88;;;;;;;17.21;96.87;102023.50;10434561;28;20036;-70
2023/07/17 21:21:26;;;;;;;6.00;3.55;;;;;;;17.12;96.90;102028.38;10418001;28;20029;-69
2023/07/17 21:26:26;;;;;;;10.75;3.75;;;;;;;17.00;96.84;102043.75;10418245;28;20033;-72
2023/07/17 21:31:27;;;;;;;18.00;2.90;;;;;;;16.92;99.28;102047.56;10419317;28;20083;-71
2023/07/17 21:36:27;;;;;;;5.53;2.88;;;;;;;16.92;100.00;102050.28;10419133;28;20056;-73
2023/07/17 21:41:30;;;;;;;10.43;2.63;;;;;;;16.92;100.00;102063.13;10417866;28;20335;-71
2023/07/17 21:46:30;;;;;;;5.90;2.90;;;;;;;16.88;100.00;102062.72;10419034;28;20091;-70
2023/07/17 21:51:30;;;;;;;6.15;2.75;;;;;;;16.91;100.00;102067.78;10419079;28;20107;-71
2023/07/17 21:56:31;;;;;;;15.38;3.08;;;;;;;16.86;100.00;102070.28;10417650;28;20045;-73
2023/07/17 22:01:31;;;;;;;8.90;3.63;;;;;;;16.86;100.00;102067.56;10417097;28;20040;-74
2023/07/17 22:06:32;;;;;;;8.40;3.70;;;;;;;16.85;100.00;102071.34;10417039;28;20121;-76
2023/07/17 22:11:32;;;;;;;12.50;3.08;;;;;;;16.85;100.00;102071.34;10415530;28;20044;-72
2023/07/17 22:16:33;;;;;;;8.77;2.97;;;;;;;16.84;100.00;102077.84;10417790;28;20025;-72
2023/07/17 22:21:33;;;;;;;7.25;4.05;;;;;;;16.85;100.00;102073.25;10417264;28;20128;-72
2023/07/17 22:26:34;;;;;;;5.72;3.08;;;;;;;16.81;100.00;102067.31;10416818;28;20482;-72
2023/07/17 22:31:34;;;;;;;4.15;2.33;;;;;;;16.83;100.00;102070.72;10416584;28;20048;-71
2023/07/17 22:36:34;;;;;;;11.05;2.50;;;;;;;16.84;100.00;102066.91;10416852;28;20037;-72
2023/07/17 22:41:35;;;;;;;7.68;3.17;;;;;;;16.85;100.00;102060.41;10416344;28;20488;-72
2023/07/17 22:46:35;;;;;;;6.72;1.90;;;;;;;16.84;100.00;102066.91;10431340;28;20052;-71
2023/07/17 22:51:37;;;;;;;7.00;2.70;;;;;;;16.84;100.00;102072.38;10416689;28;20037;-72